Time;durP1;ratioP1;P1;durP2;ratioP2;P2;SDS_P1;SDS_P2;PMS_P1;PMS_P2;Temp;Humidity;BMP_temperature;BMP_pressure;BME280_temperature;BME280_humidity;BME280_pressure;Samples;Min_cycle;Max_cycle;Signal;HPM_P1;HPM_P2
2022/09/19 00:00:05;;;;;;;7.93;3.10;;;9.80;99.90;;;;;;5030756;28;20045;-50
2022/09/19 00:02:51;;;;;;;6.43;2.95;;;9.80;99.90;;;;;;5030369;28;20052;-50
2022/09/19 00:05:41;;;;;;;7.28;3.38;;;9.90;99.90;;;;;;5030488;28;20024;-49
2022/09/19 00:08:27;;;;;;;6.30;2.92;;;9.80;99.90;;;;;;5031238;28;20025;-50
2022/09/19 00:11:15;;;;;;;4.45;2.92;;;9.90;99.90;;;;;;5011113;28;20026;-48
2022/09/19 00:14:01;;;;;;;3.65;2.83;;;9.90;99.90;;;;;;5012157;28;20030;-49
2022/09/19 00:16:48;;;;;;;4.22;2.67;;;9.90;99.90;;;;;;5031445;28;20029;-46
2022/09/19 00:19:35;;;;;;;3.83;2.45;;;9.90;99.90;;;;;;5031092;28;20026;-51
2022/09/19 00:22:21;;;;;;;3.65;2.50;;;9.90;99.90;;;;;;5030386;28;20111;-48
2022/09/19 00:25:08;;;;;;;3.63;2.50;;;9.90;99.90;;;;;;5030807;28;20057;-47
2022/09/19 00:27:54;;;;;;;3.85;2.60;;;9.90;99.90;;;;;;5030975;28;20033;-46
2022/09/19 00:30:39;;;;;;;3.97;2.58;;;10.00;99.90;;;;;;5030512;28;20042;-45
2022/09/19 00:33:30;;;;;;;4.25;2.70;;;9.90;99.90;;;;;;5030591;28;20494;-46
2022/09/19 00:36:17;;;;;;;3.42;2.60;;;9.90;99.90;;;;;;5011253;28;20608;-46
2022/09/19 00:39:05;;;;;;;4.63;2.80;;;9.90;99.90;;;;;;5013601;28;20037;-48
2022/09/19 00:41:51;;;;;;;4.55;2.65;;;9.90;99.90;;;;;;5029598;28;20676;-46
2022/09/19 00:44:37;;;;;;;3.70;2.95;;;9.90;99.90;;;;;;5029964;28;20724;-46
2022/09/19 00:47:36;;;;;;;6.10;3.20;;;10.00;99.90;;;;;;5030072;28;20025;-49
2022/09/19 00:50:27;;;;;;;4.28;3.05;;;9.90;99.90;;;;;;5029648;28;20072;-47
2022/09/19 00:53:21;;;;;;;5.88;3.80;;;9.80;99.90;;;;;;5029736;28;20021;-45
2022/09/19 00:56:07;;;;;;;7.35;3.83;;;9.90;99.90;;;;;;5029666;28;20036;-49
2022/09/19 00:58:54;;;;;;;6.85;3.85;;;9.90;99.90;;;;;;5030152;28;20065;-47
2022/09/19 01:01:41;;;;;;;6.90;4.63;;;10.00;99.90;;;;;;5029195;28;20026;-46
2022/09/19 01:04:35;;;;;;;6.38;3.58;;;10.00;99.90;;;;;;5030134;28;20013;-46
2022/09/19 01:07:43;;;;;;;8.95;4.70;;;10.00;99.90;;;;;;5017499;28;20033;-45
2022/09/19 01:10:54;;;;;;;7.00;4.50;;;10.10;99.90;;;;;;5029394;28;20112;-49
2022/09/19 01:14:31;;;;;;;8.07;5.47;;;10.00;99.90;;;;;;5030193;28;20022;-49
2022/09/19 01:17:45;;;;;;;6.22;5.03;;;10.00;99.90;;;;;;4987201;28;20052;-48
2022/09/19 01:20:46;;;;;;;10.93;5.47;;;10.00;99.90;;;;;;5026266;28;20025;-46
2022/09/19 01:23:41;;;;;;;6.78;4.90;;;10.10;99.90;;;;;;5030985;28;20490;-51
2022/09/19 01:27:09;;;;;;;9.05;5.50;;;10.10;99.90;;;;;;5010519;28;20525;-45
2022/09/19 01:30:08;;;;;;;8.38;5.05;;;10.20;99.90;;;;;;5026502;28;20034;-48
2022/09/19 01:33:03;;;;;;;10.73;5.38;;;10.20;99.90;;;;;;5034534;28;20025;-49
2022/09/19 01:35:53;;;;;;;9.52;5.18;;;10.20;99.90;;;;;;5033625;28;20022;-48
2022/09/19 01:38:41;;;;;;;10.65;5.88;;;10.20;99.90;;;;;;5033722;28;20131;-46
2022/09/19 01:41:27;;;;;;;8.10;5.20;;;10.40;99.90;;;;;;5014610;28;20088;-49
2022/09/19 01:44:20;;;;;;;10.30;5.88;;;10.40;99.90;;;;;;5014327;28;20087;-50
2022/09/19 01:47:28;;;;;;;6.78;5.47;;;10.30;99.90;;;;;;5014890;28;20033;-50
2022/09/19 01:50:45;;;;;;;9.38;5.50;;;10.40;99.90;;;;;;5024713;28;20017;-47
2022/09/19 01:53:51;;;;;;;8.93;5.28;;;10.40;99.90;;;;;;5033347;28;20501;-46
2022/09/19 01:57:19;;;;;;;7.82;5.65;;;10.40;99.90;;;;;;5033176;28;20091;-53
2022/09/19 02:00:21;;;;;;;7.57;5.97;;;10.30;99.90;;;;;;5033779;28;20024;-52
2022/09/19 02:03:23;;;;;;;7.45;5.60;;;10.20;99.90;;;;;;5020466;28;20064;-46
2022/09/19 02:06:43;;;;;;;8.38;5.40;;;10.30;99.90;;;;;;5033055;28;20542;-45
2022/09/19 02:09:29;;;;;;;6.93;5.00;;;10.30;99.90;;;;;;5034010;28;20033;-46
2022/09/19 02:12:18;;;;;;;5.50;4.88;;;10.30;99.90;;;;;;5032684;28;20030;-50
2022/09/19 02:15:10;;;;;;;7.57;4.82;;;10.30;99.90;;;;;;5033013;28;20026;-55
2022/09/19 02:18:05;;;;;;;7.32;5.82;;;10.40;99.90;;;;;;5033152;28;20030;-53
2022/09/19 02:20:58;;;;;;;9.43;5.50;;;10.40;99.90;;;;;;5018498;28;20592;-48
2022/09/19 02:23:49;;;;;;;8.15;5.22;;;10.40;99.90;;;;;;5032910;28;20481;-52
2022/09/19 02:26:39;;;;;;;10.35;5.70;;;10.30;99.90;;;;;;5015084;28;20056;-50
2022/09/19 02:29:30;;;;;;;8.32;5.55;;;10.30;99.90;;;;;;5024101;28;20061;-49
2022/09/19 02:32:17;;;;;;;11.52;5.80;;;10.40;99.90;;;;;;5036793;28;20028;-47
2022/09/19 02:35:05;;;;;;;6.60;5.50;;;10.40;99.90;;;;;;5035164;28;20056;-46
2022/09/19 02:38:01;;;;;;;6.00;5.35;;;10.40;99.90;;;;;;5033668;28;20033;-48
2022/09/19 02:41:03;;;;;;;6.68;4.80;;;10.40;99.90;;;;;;5031475;28;20516;-49
2022/09/19 02:44:02;;;;;;;7.22;5.43;;;10.40;99.90;;;;;;5032507;28;20056;-47
2022/09/19 02:47:15;;;;;;;8.30;5.50;;;10.40;99.90;;;;;;5032085;28;20079;-46
2022/09/19 02:50:15;;;;;;;7.30;6.13;;;10.40;99.90;;;;;;5032050;28;20544;-52
2022/09/19 02:53:04;;;;;;;7.03;5.35;;;10.50;99.90;;;;;;5032824;28;20061;-48
2022/09/19 02:55:57;;;;;;;9.18;5.93;;;10.40;99.90;;;;;;5031930;28;20033;-45
2022/09/19 02:58:51;;;;;;;6.53;5.07;;;10.40;99.90;;;;;;5032045;28;20025;-49
2022/09/19 03:01:42;;;;;;;7.50;4.80;;;10.30;99.90;;;;;;5031820;28;20588;-48
2022/09/19 03:04:34;;;;;;;6.63;5.20;;;10.40;99.90;;;;;;5031871;28;20026;-48
2022/09/19 03:07:27;;;;;;;7.55;5.53;;;10.40;99.90;;;;;;5032327;28;20025;-51
2022/09/19 03:10:26;;;;;;;7.68;5.70;;;10.30;99.90;;;;;;5032076;28;20663;-47
2022/09/19 03:13:12;;;;;;;7.10;5.32;;;10.40;99.90;;;;;;5032942;28;20038;-47
2022/09/19 03:16:13;;;;;;;7.50;5.63;;;10.40;99.90;;;;;;5031929;28;20025;-48
2022/09/19 03:19:05;;;;;;;9.80;5.63;;;10.40;99.90;;;;;;5031590;28;20116;-49
2022/09/19 03:21:53;;;;;;;8.55;5.47;;;10.40;99.90;;;;;;5030990;28;20017;-49
2022/09/19 03:24:41;;;;;;;6.03;4.97;;;10.40;99.90;;;;;;5017845;28;20112;-49
2022/09/19 03:27:26;;;;;;;8.95;5.90;;;10.40;99.90;;;;;;5031782;28;20060;-50
2022/09/19 03:30:13;;;;;;;9.13;5.63;;;10.30;99.90;;;;;;5031025;28;20037;-51
2022/09/19 03:32:59;;;;;;;6.85;5.50;;;10.30;99.90;;;;;;5030938;28;20033;-51
2022/09/19 03:35:50;;;;;;;6.18;5.45;;;10.40;99.90;;;;;;5017426;28;20106;-49
2022/09/19 03:38:44;;;;;;;7.70;5.88;;;10.30;99.90;;;;;;5031127;28;20079;-49
2022/09/19 03:41:31;;;;;;;6.95;5.13;;;10.40;99.90;;;;;;5012057;28;20030;-49
2022/09/19 03:44:19;;;;;;;5.32;4.82;;;10.30;99.90;;;;;;5019125;28;20025;-51
2022/09/19 03:47:05;;;;;;;7.18;5.47;;;10.40;99.90;;;;;;5031393;28;20036;-48
2022/09/19 03:49:51;;;;;;;7.18;6.10;;;10.30;99.90;;;;;;5031064;28;20028;-47
2022/09/19 03:52:37;;;;;;;8.20;6.32;;;10.40;99.90;;;;;;5030871;28;20523;-46
2022/09/19 03:55:22;;;;;;;6.93;5.82;;;10.30;99.90;;;;;;5030946;28;20490;-48
2022/09/19 03:58:10;;;;;;;9.27;5.97;;;10.30;99.90;;;;;;5030682;28;20117;-51
2022/09/19 04:00:57;;;;;;;6.93;6.22;;;10.30;99.90;;;;;;5030843;28;20035;-48
2022/09/19 04:03:43;;;;;;;7.78;6.32;;;10.20;99.90;;;;;;5031024;28;20021;-48
2022/09/19 04:06:29;;;;;;;8.07;5.97;;;10.30;99.90;;;;;;5017485;28;20104;-51
2022/09/19 04:09:15;;;;;;;8.48;5.80;;;10.30;99.90;;;;;;5030513;28;20037;-48
2022/09/19 04:12:03;;;;;;;7.57;6.35;;;10.40;99.90;;;;;;5030041;28;20502;-49
2022/09/19 04:14:49;;;;;;;10.90;6.90;;;10.40;99.90;;;;;;5031539;28;20167;-56
2022/09/19 04:17:35;;;;;;;8.02;6.55;;;10.40;99.90;;;;;;5030244;28;20107;-49
2022/09/19 04:20:29;;;;;;;12.40;7.40;;;10.40;99.90;;;;;;5030037;28;20021;-50
2022/09/19 04:23:16;;;;;;;9.88;7.25;;;10.40;99.90;;;;;;5030450;28;20026;-49
2022/09/19 04:26:04;;;;;;;7.88;6.38;;;10.40;99.90;;;;;;5010723;28;20030;-46
2022/09/19 04:28:50;;;;;;;9.18;6.68;;;10.40;99.90;;;;;;5020983;28;20029;-48
2022/09/19 04:31:39;;;;;;;9.13;6.82;;;10.50;99.90;;;;;;5044952;28;20029;-49
2022/09/19 04:34:25;;;;;;;7.13;6.30;;;10.50;99.90;;;;;;5032787;28;20041;-50
2022/09/19 04:37:15;;;;;;;7.93;6.22;;;10.50;99.90;;;;;;5027732;28;20025;-50
2022/09/19 04:40:01;;;;;;;8.38;6.13;;;10.50;99.90;;;;;;5011295;28;20524;-47
2022/09/19 04:42:50;;;;;;;7.55;5.38;;;10.50;99.90;;;;;;5014453;28;20196;-46
2022/09/19 04:45:37;;;;;;;7.25;5.38;;;10.50;99.90;;;;;;5030599;28;20025;-47
2022/09/19 04:48:23;;;;;;;6.10;4.70;;;10.50;99.90;;;;;;5030981;28;20026;-48
2022/09/19 04:51:11;;;;;;;5.25;4.75;;;10.50;99.90;;;;;;5030238;28;20033;-51
2022/09/19 04:53:57;;;;;;;6.30;4.50;;;10.50;99.90;;;;;;5030418;28;20402;-49
2022/09/19 04:56:46;;;;;;;4.45;4.00;;;10.50;99.90;;;;;;5030461;28;20030;-47
2022/09/19 04:59:36;;;;;;;6.15;4.38;;;10.50;99.90;;;;;;5030070;28;20107;-52
2022/09/19 05:02:23;;;;;;;4.40;4.00;;;10.50;99.90;;;;;;5029985;28;20025;-49
2022/09/19 05:05:09;;;;;;;6.28;4.70;;;10.60;99.90;;;;;;5029697;28;20029;-50
2022/09/19 05:07:55;;;;;;;5.00;3.53;;;10.60;99.90;;;;;;5029630;28;20030;-51
2022/09/19 05:10:42;;;;;;;5.05;3.53;;;10.50;99.90;;;;;;5016386;28;20118;-50
2022/09/19 05:13:30;;;;;;;4.15;3.60;;;10.60;99.90;;;;;;5010938;28;20034;-51
2022/09/19 05:16:18;;;;;;;4.07;3.65;;;10.50;99.90;;;;;;5029575;28;20026;-47
2022/09/19 05:19:04;;;;;;;4.65;4.07;;;10.50;99.90;;;;;;5029175;28;20084;-51
2022/09/19 05:21:51;;;;;;;3.80;3.50;;;10.50;99.90;;;;;;5029040;28;20497;-57
2022/09/19 05:24:37;;;;;;;7.05;4.00;;;10.50;99.90;;;;;;5016195;28;20112;-49
2022/09/19 05:27:23;;;;;;;4.38;3.40;;;10.40;99.90;;;;;;5029821;28;20030;-55
2022/09/19 05:30:10;;;;;;;4.10;3.35;;;10.40;99.90;;;;;;5029106;28;20034;-52
2022/09/19 05:32:57;;;;;;;3.50;3.13;;;10.30;99.90;;;;;;5029554;28;20430;-54
2022/09/19 05:35:43;;;;;;;9.10;3.20;;;10.30;99.90;;;;;;5015062;28;20087;-55
2022/09/19 05:38:31;;;;;;;3.63;3.00;;;10.30;99.90;;;;;;5029897;28;20552;-56
2022/09/19 05:41:17;;;;;;;4.55;3.70;;;10.40;99.90;;;;;;5015818;28;20127;-56
2022/09/19 05:44:04;;;;;;;6.13;3.40;;;10.40;99.90;;;;;;5029372;28;20030;-59
2022/09/19 05:46:52;;;;;;;6.05;3.55;;;10.40;99.90;;;;;;5028886;28;20044;-57
2022/09/19 05:49:39;;;;;;;5.03;3.47;;;10.40;99.90;;;;;;5028823;28;20065;-57
2022/09/19 05:55:29;;;;;;;4.82;3.47;;;10.20;99.90;;;;;;5014455;28;20029;-59
2022/09/19 05:58:17;;;;;;;6.50;4.30;;;10.30;99.90;;;;;;5028094;28;20064;-56
2022/09/19 06:01:07;;;;;;;5.15;4.65;;;10.40;99.90;;;;;;5023051;28;20018;-57
2022/09/19 06:03:53;;;;;;;6.53;5.18;;;10.40;99.90;;;;;;5029121;28;20025;-54
2022/09/19 06:06:39;;;;;;;7.28;6.13;;;10.40;99.90;;;;;;5029349;28;20026;-52
2022/09/19 06:09:27;;;;;;;7.15;6.45;;;10.40;99.90;;;;;;5029329;28;20037;-56
2022/09/19 06:12:13;;;;;;;11.57;8.50;;;10.50;99.90;;;;;;5028764;28;20037;-52
2022/09/19 06:15:00;;;;;;;14.50;10.05;;;10.60;99.90;;;;;;5017547;28;20519;-52
2022/09/19 06:17:49;;;;;;;19.30;16.17;;;10.50;99.90;;;;;;5019450;28;20123;-55
2022/09/19 06:20:35;;;;;;;19.15;16.48;;;10.50;99.90;;;;;;5013674;28;20037;-54
2022/09/19 06:23:21;;;;;;;19.30;17.10;;;10.60;99.90;;;;;;5016862;28;20014;-51
2022/09/19 06:26:08;;;;;;;20.55;18.23;;;10.60;99.90;;;;;;5032525;28;20025;-52
2022/09/19 06:28:53;;;;;;;20.98;18.75;;;10.60;99.90;;;;;;5033080;28;20034;-52
2022/09/19 06:31:39;;;;;;;21.50;18.90;;;10.60;99.90;;;;;;5031823;28;20108;-52
2022/09/19 06:34:25;;;;;;;24.60;20.55;;;10.60;99.90;;;;;;5018314;28;20492;-52
2022/09/19 06:37:12;;;;;;;25.80;20.55;;;10.70;99.90;;;;;;5019411;28;20108;-52
2022/09/19 06:39:58;;;;;;;23.58;19.45;;;10.60;99.90;;;;;;5032635;28;20034;-52
2022/09/19 06:42:44;;;;;;;25.45;20.88;;;10.60;99.90;;;;;;5012198;28;20059;-50
2022/09/19 06:45:37;;;;;;;22.40;18.65;;;10.70;99.90;;;;;;5027267;28;20036;-51
2022/09/19 06:48:23;;;;;;;22.02;19.67;;;10.70;99.90;;;;;;5022993;28;20030;-50
2022/09/19 06:51:09;;;;;;;23.63;18.85;;;10.80;99.90;;;;;;5028052;28;20042;-51
2022/09/19 06:53:55;;;;;;;21.65;17.25;;;10.80;99.90;;;;;;5012996;28;20029;-56
2022/09/19 06:56:41;;;;;;;18.08;15.57;;;10.90;99.90;;;;;;5025935;28;20480;-53
2022/09/19 06:59:27;;;;;;;21.10;16.88;;;10.90;99.90;;;;;;5013357;28;20053;-54
2022/09/19 07:02:13;;;;;;;17.02;14.77;;;11.00;99.90;;;;;;5029473;28;20410;-51
2022/09/19 07:04:59;;;;;;;16.52;14.50;;;11.00;99.90;;;;;;5030452;28;20702;-54
2022/09/19 07:07:45;;;;;;;15.73;13.57;;;11.10;99.90;;;;;;5025289;28;20040;-53
2022/09/19 07:10:33;;;;;;;17.83;14.40;;;11.20;99.90;;;;;;5023649;28;20080;-48
2022/09/19 07:13:19;;;;;;;15.98;13.07;;;11.20;99.90;;;;;;5026949;28;20033;-54
2022/09/19 07:16:06;;;;;;;13.10;11.23;;;11.30;99.90;;;;;;5026805;28;20061;-49
2022/09/19 07:18:52;;;;;;;14.85;11.60;;;11.30;99.90;;;;;;5015534;28;20081;-49
2022/09/19 07:21:38;;;;;;;14.18;10.82;;;11.40;99.90;;;;;;5009606;28;20026;-50
2022/09/19 07:24:24;;;;;;;11.43;10.13;;;11.50;99.90;;;;;;5022123;28;20017;-48
2022/09/19 07:27:10;;;;;;;12.52;9.88;;;11.50;99.90;;;;;;5014396;28;20034;-50
2022/09/19 07:29:56;;;;;;;10.70;9.60;;;11.60;99.90;;;;;;5027412;28;20042;-49
2022/09/19 07:32:42;;;;;;;10.10;8.80;;;11.50;99.90;;;;;;5028243;28;20389;-54
2022/09/19 07:35:29;;;;;;;10.18;9.18;;;11.50;99.90;;;;;;5030740;28;20033;-49
2022/09/19 07:38:18;;;;;;;11.38;8.90;;;11.50;99.90;;;;;;5028446;28;20079;-52
2022/09/19 07:41:04;;;;;;;10.68;8.82;;;11.50;99.90;;;;;;5014053;28;20029;-52
2022/09/19 07:43:50;;;;;;;9.57;8.55;;;11.50;99.90;;;;;;5015744;28;20564;-52
2022/09/19 07:46:36;;;;;;;9.95;8.80;;;11.50;99.90;;;;;;5030759;28;20448;-52
2022/09/19 07:49:22;;;;;;;10.50;9.43;;;11.60;99.90;;;;;;5019215;28;20038;-50
2022/09/19 07:52:08;;;;;;;14.43;9.70;;;11.70;99.90;;;;;;5030480;28;20072;-53
2022/09/19 07:54:54;;;;;;;10.20;9.20;;;11.70;99.90;;;;;;5033757;28;20039;-50
2022/09/19 07:57:51;;;;;;;14.13;9.73;;;11.80;99.90;;;;;;5032583;28;20044;-49
2022/09/19 08:00:38;;;;;;;11.82;10.13;;;11.70;99.90;;;;;;5015524;28;20029;-53
2022/09/19 08:03:24;;;;;;;11.60;9.05;;;11.90;99.90;;;;;;5016704;28;20489;-54
2022/09/19 08:06:12;;;;;;;11.45;9.82;;;11.90;99.90;;;;;;5031564;28;20095;-52
2022/09/19 08:08:58;;;;;;;10.80;8.88;;;12.00;99.90;;;;;;5011313;28;20056;-51
2022/09/19 08:11:44;;;;;;;12.52;8.68;;;12.00;99.90;;;;;;5017521;28;20026;-52
2022/09/19 08:14:30;;;;;;;10.60;8.23;;;12.00;99.90;;;;;;5016152;28;20490;-52
2022/09/19 08:17:16;;;;;;;9.93;8.63;;;11.90;99.90;;;;;;5030144;28;20045;-52
2022/09/19 08:20:03;;;;;;;9.40;8.15;;;11.80;99.90;;;;;;5023569;28;20116;-48
2022/09/19 08:22:53;;;;;;;9.93;8.02;;;11.90;99.90;;;;;;5025874;28;20107;-51
2022/09/19 08:25:42;;;;;;;9.68;8.23;;;11.90;99.90;;;;;;5030352;28;20298;-47
2022/09/19 08:28:30;;;;;;;8.60;7.80;;;11.80;99.90;;;;;;5034031;28;20382;-50
2022/09/19 08:31:16;;;;;;;12.13;8.30;;;12.00;99.90;;;;;;5022807;28;20109;-52
2022/09/19 08:34:02;;;;;;;9.98;7.30;;;12.30;99.90;;;;;;5021937;28;20117;-54
2022/09/19 08:36:48;;;;;;;12.45;8.25;;;12.50;99.90;;;;;;5012405;28;20032;-53
2022/09/19 08:39:34;;;;;;;9.80;7.68;;;12.60;99.90;;;;;;5015019;28;20391;-52
2022/09/19 08:42:53;;;;;;;9.38;6.80;;;12.70;99.90;;;;;;5013828;28;20060;-51
2022/09/19 08:45:59;;;;;;;8.00;6.60;;;12.90;99.90;;;;;;5021516;28;20017;-51
2022/09/19 08:48:57;;;;;;;7.68;6.43;;;13.00;99.90;;;;;;5008845;28;20398;-57
2022/09/19 08:52:25;;;;;;;7.60;6.18;;;13.20;99.90;;;;;;5019669;28;20030;-55
2022/09/19 08:55:20;;;;;;;6.78;5.05;;;13.30;99.90;;;;;;5026654;28;20025;-53
2022/09/19 08:58:12;;;;;;;8.32;5.22;;;13.40;99.90;;;;;;5023315;28;20037;-55
2022/09/19 09:01:00;;;;;;;5.88;5.28;;;13.30;99.90;;;;;;5022804;28;20506;-59
2022/09/19 09:03:57;;;;;;;9.38;5.43;;;13.30;99.90;;;;;;5014962;28;20021;-53
2022/09/19 09:07:10;;;;;;;9.23;5.35;;;13.20;99.90;;;;;;5024925;28;20030;-52
2022/09/19 09:10:29;;;;;;;9.10;5.10;;;13.10;99.90;;;;;;5019580;28;20030;-56
2022/09/19 09:13:35;;;;;;;9.85;5.10;;;13.00;99.90;;;;;;5018421;28;20029;-57
2022/09/19 09:16:52;;;;;;;8.10;4.70;;;13.00;99.90;;;;;;5016369;28;20052;-56
2022/09/19 09:19:50;;;;;;;7.45;4.38;;;13.10;99.90;;;;;;5024829;28;20038;-54
2022/09/19 09:22:48;;;;;;;6.78;4.72;;;12.90;99.90;;;;;;5026529;28;20024;-55
2022/09/19 09:25:37;;;;;;;8.23;4.72;;;12.90;99.90;;;;;;5026263;28;20033;-53
2022/09/19 09:28:41;;;;;;;7.85;4.60;;;12.90;99.90;;;;;;5007243;28;20087;-54
2022/09/19 09:31:34;;;;;;;6.68;4.18;;;13.10;99.90;;;;;;5028096;28;20029;-58
2022/09/19 09:34:29;;;;;;;5.53;3.97;;;13.20;99.90;;;;;;5029863;28;20088;-56
2022/09/19 09:37:31;;;;;;;7.70;4.47;;;13.20;99.90;;;;;;5027030;28;20494;-59
2022/09/19 09:44:05;;;;;;;7.47;3.85;;;13.60;99.90;;;;;;5026938;28;20014;-58
2022/09/19 09:47:15;;;;;;;8.98;3.80;;;13.70;99.90;;;;;;5029293;28;20033;-58
2022/09/19 09:50:40;;;;;;;6.53;3.25;;;14.10;99.90;;;;;;5031742;28;20017;-57
2022/09/19 09:53:53;;;;;;;6.40;3.20;;;14.10;99.90;;;;;;5015390;28;20116;-55
2022/09/19 09:56:54;;;;;;;4.57;3.00;;;14.10;99.90;;;;;;5022132;28;20111;-58
2022/09/19 10:03:34;;;;;;;5.78;2.85;;;14.20;99.90;;;;;;5032668;28;20498;-57
2022/09/19 10:06:42;;;;;;;4.57;2.92;;;14.30;99.90;;;;;;5020790;28;20041;-57
2022/09/19 10:09:34;;;;;;;5.63;2.88;;;14.40;99.90;;;;;;5053093;28;20440;-58
2022/09/19 10:12:36;;;;;;;7.40;3.53;;;14.30;99.90;;;;;;5013839;28;20034;-59
2022/09/19 10:15:24;;;;;;;5.38;2.97;;;14.40;99.90;;;;;;5014038;28;20108;-58
2022/09/19 10:18:14;;;;;;;5.88;2.60;;;14.60;99.90;;;;;;5020474;28;20029;-60
2022/09/19 10:21:00;;;;;;;6.03;2.70;;;14.60;99.90;;;;;;5030108;28;20083;-57
2022/09/19 10:23:46;;;;;;;4.43;2.70;;;14.70;99.90;;;;;;5030996;28;20039;-57
2022/09/19 10:26:32;;;;;;;6.47;2.60;;;14.60;99.90;;;;;;5031443;28;20057;-59
2022/09/19 10:29:22;;;;;;;5.57;2.78;;;14.60;99.90;;;;;;5031732;28;20064;-59
2022/09/19 10:32:08;;;;;;;3.35;2.53;;;14.40;99.90;;;;;;5029183;28;20045;-57
2022/09/19 10:34:54;;;;;;;4.85;2.60;;;14.40;99.90;;;;;;5032642;28;20084;-57
2022/09/19 10:37:40;;;;;;;4.55;2.80;;;14.60;99.90;;;;;;5032136;28;20030;-57
2022/09/19 10:40:29;;;;;;;6.75;3.20;;;14.70;99.90;;;;;;5032074;28;20033;-58
2022/09/19 10:43:26;;;;;;;7.93;3.25;;;14.80;99.90;;;;;;5030801;28;20105;-59
2022/09/19 10:46:36;;;;;;;6.45;2.60;;;15.00;99.90;;;;;;5026449;28;20018;-56
2022/09/19 10:49:28;;;;;;;4.00;2.60;;;15.00;99.90;;;;;;5016258;28;20029;-56
2022/09/19 10:52:30;;;;;;;6.35;2.53;;;15.00;99.90;;;;;;5018024;28;20087;-55
2022/09/19 10:55:20;;;;;;;5.47;3.35;;;15.00;99.90;;;;;;5032553;28;20112;-58
2022/09/19 10:58:39;;;;;;;4.05;3.13;;;14.90;99.90;;;;;;5031991;28;20026;-58
2022/09/19 11:01:27;;;;;;;5.25;3.15;;;14.90;99.90;;;;;;5019395;28;20026;-57
2022/09/19 11:04:12;;;;;;;5.63;3.45;;;15.00;99.90;;;;;;4997859;28;20711;-56
2022/09/19 11:07:02;;;;;;;6.50;3.17;;;14.90;99.90;;;;;;4998354;28;20033;-57
2022/09/19 11:09:48;;;;;;;3.72;2.70;;;14.80;99.90;;;;;;5012996;28;20022;-56
2022/09/19 11:12:34;;;;;;;11.05;3.47;;;15.10;99.90;;;;;;5012212;28;20137;-58
2022/09/19 11:15:21;;;;;;;4.45;2.70;;;15.20;99.90;;;;;;5003117;28;20030;-58
2022/09/19 11:18:38;;;;;;;5.57;3.17;;;15.30;99.30;;;;;;5019414;28;20030;-59
2022/09/19 11:22:08;;;;;;;5.53;2.80;;;15.10;99.10;;;;;;5016724;28;20024;-57
2022/09/19 11:25:24;;;;;;;5.55;3.13;;;14.90;98.90;;;;;;5000940;28;20413;-57
2022/09/19 11:28:16;;;;;;;7.38;2.88;;;15.10;97.80;;;;;;5031324;28;20026;-58
2022/09/19 11:31:37;;;;;;;6.45;2.60;;;15.20;97.90;;;;;;5025994;28;20017;-53
2022/09/19 11:34:46;;;;;;;6.93;3.13;;;15.50;97.80;;;;;;5025382;28;20041;-57
2022/09/19 11:37:58;;;;;;;5.20;3.45;;;15.50;98.20;;;;;;5031603;28;20040;-56
2022/09/19 11:40:56;;;;;;;8.80;3.60;;;15.60;98.30;;;;;;5019230;28;20084;-59
2022/09/19 11:44:01;;;;;;;6.18;3.15;;;15.60;98.60;;;;;;5031837;28;20014;-59
2022/09/19 11:47:18;;;;;;;6.87;3.27;;;15.40;99.20;;;;;;5028952;28;20104;-59
2022/09/19 11:50:10;;;;;;;4.35;2.58;;;15.40;99.00;;;;;;5012772;28;20060;-60
2022/09/19 11:53:23;;;;;;;7.22;2.97;;;15.70;96.10;;;;;;5011905;28;20030;-55
2022/09/19 11:56:37;;;;;;;6.57;2.92;;;15.80;96.10;;;;;;5012302;28;20388;-58
2022/09/19 11:59:41;;;;;;;6.50;2.92;;;15.90;96.40;;;;;;5012840;28;20698;-61
2022/09/19 12:02:53;;;;;;;5.97;2.97;;;16.20;96.00;;;;;;5012882;28;20022;-57
2022/09/19 12:06:10;;;;;;;5.70;2.90;;;16.10;95.70;;;;;;5012107;28;20029;-58
2022/09/19 12:09:55;;;;;;;7.10;2.88;;;16.00;96.20;;;;;;5011979;28;20037;-58
2022/09/19 12:12:45;;;;;;;6.75;3.03;;;16.40;96.00;;;;;;5008460;28;20123;-59
2022/09/19 12:15:35;;;;;;;6.95;3.33;;;16.30;95.30;;;;;;5031070;28;20083;-58
2022/09/19 12:18:31;;;;;;;4.95;2.63;;;16.40;93.50;;;;;;5031219;28;20030;-58
2022/09/19 12:21:19;;;;;;;4.15;2.65;;;16.60;94.20;;;;;;5031690;28;20017;-56
2022/09/19 12:27:33;;;;;;;5.85;2.72;;;17.10;94.00;;;;;;5032335;28;20422;-59
2022/09/19 12:30:22;;;;;;;6.80;3.03;;;17.00;94.70;;;;;;5031135;28;20026;-59
2022/09/19 12:33:33;;;;;;;5.82;4.13;;;17.00;94.20;;;;;;5030493;28;20029;-58
2022/09/19 12:36:52;;;;;;;6.30;2.70;;;17.20;94.50;;;;;;5030805;28;20048;-58
2022/09/19 12:40:10;;;;;;;4.40;2.50;;;17.10;93.00;;;;;;5030723;28;20029;-58
2022/09/19 12:43:14;;;;;;;5.47;3.22;;;16.60;94.10;;;;;;5031496;28;20026;-57
2022/09/19 12:46:14;;;;;;;4.53;2.47;;;16.40;94.70;;;;;;5016461;28;20025;-57
2022/09/19 12:49:16;;;;;;;3.47;2.03;;;16.20;95.60;;;;;;5010791;28;20057;-56
2022/09/19 12:52:18;;;;;;;3.03;2.10;;;15.60;94.90;;;;;;5009272;28;20025;-58
2022/09/19 12:55:21;;;;;;;5.18;2.20;;;15.20;95.10;;;;;;5011788;28;20114;-57
2022/09/19 12:58:17;;;;;;;3.08;2.10;;;15.10;94.80;;;;;;5011355;28;20537;-57
2022/09/19 13:01:23;;;;;;;4.03;2.15;;;15.10;95.20;;;;;;5011052;28;20026;-58
2022/09/19 13:04:43;;;;;;;4.93;1.95;;;15.10;94.40;;;;;;5011010;28;20030;-59
2022/09/19 13:07:45;;;;;;;4.05;2.03;;;15.00;95.20;;;;;;5010394;28;20022;-57
2022/09/19 13:11:04;;;;;;;1.73;1.60;;;15.00;95.10;;;;;;5011129;28;20056;-59
2022/09/19 13:14:05;;;;;;;1.92;1.52;;;15.10;94.90;;;;;;5022863;28;20029;-58
2022/09/19 13:23:31;;;;;;;3.28;2.10;;;15.80;93.70;;;;;;5029691;28;20025;-59
2022/09/19 13:26:27;;;;;;;3.75;1.90;;;15.80;93.50;;;;;;5030428;28;20025;-58
2022/09/19 13:29:37;;;;;;;7.82;2.20;;;15.80;93.90;;;;;;5030032;28;20118;-59
2022/09/19 13:32:53;;;;;;;2.83;2.35;;;16.20;93.80;;;;;;5030034;28;20021;-57
2022/09/19 13:35:52;;;;;;;2.72;1.92;;;16.70;92.70;;;;;;5031134;28;20028;-58
2022/09/19 13:38:41;;;;;;;3.33;1.83;;;17.10;92.50;;;;;;5029457;28;20059;-58
2022/09/19 13:41:44;;;;;;;4.13;1.85;;;17.40;92.20;;;;;;5029631;28;20549;-57
2022/09/19 13:44:49;;;;;;;2.05;1.85;;;17.40;92.20;;;;;;5029224;28;20021;-55
2022/09/19 13:47:41;;;;;;;3.00;2.10;;;17.40;92.70;;;;;;5029967;28;20017;-57
2022/09/19 13:50:35;;;;;;;2.90;1.98;;;17.40;92.40;;;;;;5030174;28;20026;-58
2022/09/19 13:53:38;;;;;;;3.80;1.63;;;17.20;92.60;;;;;;5029979;28;20548;-57
2022/09/19 13:56:36;;;;;;;2.45;1.58;;;17.50;92.00;;;;;;5029967;28;20024;-57
2022/09/19 13:59:29;;;;;;;4.07;2.20;;;17.60;90.80;;;;;;5031132;28;20029;-57
2022/09/19 14:02:19;;;;;;;3.15;1.67;;;17.60;91.40;;;;;;5030110;28;20053;-59
2022/09/19 14:05:19;;;;;;;3.78;2.10;;;18.00;90.50;;;;;;5030426;28;20025;-59
2022/09/19 14:08:23;;;;;;;2.15;1.70;;;18.30;91.30;;;;;;5015722;28;20104;-58
2022/09/19 14:11:11;;;;;;;1.98;1.63;;;18.50;91.00;;;;;;5029979;28;20025;-58
2022/09/19 14:13:57;;;;;;;5.28;2.00;;;18.40;90.50;;;;;;5002613;28;20112;-58
2022/09/19 14:17:23;;;;;;;1.80;1.50;;;18.70;90.80;;;;;;5010639;28;20030;-56
2022/09/19 14:20:47;;;;;;;3.17;2.17;;;19.00;89.10;;;;;;5010522;28;20057;-54
2022/09/19 14:23:40;;;;;;;2.78;2.00;;;17.50;91.90;;;;;;5011021;28;20254;-61
2022/09/19 14:26:41;;;;;;;5.53;2.38;;;16.50;95.10;;;;;;4996421;28;20033;-61
2022/09/19 14:29:42;;;;;;;3.90;2.28;;;15.60;97.80;;;;;;5010995;28;20101;-63
2022/09/19 14:32:40;;;;;;;3.10;2.00;;;15.10;98.60;;;;;;5013389;28;20025;-61
2022/09/19 14:35:42;;;;;;;5.68;2.60;;;14.70;99.60;;;;;;5016241;28;20025;-61
2022/09/19 14:39:05;;;;;;;3.58;2.08;;;14.40;99.90;;;;;;5033192;28;20056;-62
2022/09/19 14:41:58;;;;;;;5.28;2.40;;;14.20;99.90;;;;;;5018078;28;20026;-62
2022/09/19 14:45:15;;;;;;;3.53;2.85;;;13.80;99.90;;;;;;5032854;28;20079;-62
2022/09/19 14:48:12;;;;;;;4.93;2.30;;;13.70;99.90;;;;;;5031164;28;20039;-60
2022/09/19 14:51:31;;;;;;;5.65;2.53;;;13.60;99.90;;;;;;5021243;28;20025;-61
2022/09/19 14:54:32;;;;;;;5.20;2.50;;;13.40;99.90;;;;;;5033681;28;20029;-63
2022/09/19 14:57:20;;;;;;;7.72;2.35;;;13.20;99.90;;;;;;5014780;28;20032;-62
2022/09/19 15:00:31;;;;;;;5.47;2.60;;;13.10;99.90;;;;;;5024826;28;20418;-63
2022/09/19 15:03:20;;;;;;;7.13;2.95;;;13.10;99.90;;;;;;5031616;28;20031;-62
2022/09/19 15:06:16;;;;;;;4.15;2.78;;;13.00;99.90;;;;;;5025996;28;20052;-62
2022/09/19 15:09:03;;;;;;;4.97;2.80;;;13.00;99.90;;;;;;5014275;28;20506;-63
2022/09/19 15:11:55;;;;;;;5.30;2.65;;;13.00;99.90;;;;;;5028365;28;20036;-61
2022/09/19 15:14:45;;;;;;;10.15;4.68;;;13.10;99.90;;;;;;5032144;28;20052;-60
2022/09/19 15:17:33;;;;;;;5.72;2.80;;;13.00;99.90;;;;;;5032843;28;20030;-61
2022/09/19 15:20:20;;;;;;;5.90;3.50;;;12.90;99.90;;;;;;5026868;28;20030;-57
2022/09/19 15:23:08;;;;;;;5.70;3.13;;;12.80;99.90;;;;;;5012041;28;20569;-60
2022/09/19 15:26:07;;;;;;;7.15;3.95;;;12.80;99.90;;;;;;5012840;28;20033;-58